createdAt,value
2018-04-22T00:00:39.218Z,1012.43
2018-04-22T00:01:39.499Z,1012.42
2018-04-22T00:02:39.236Z,1012.41
2018-04-22T00:03:39.174Z,1012.39
2018-04-22T00:04:39.147Z,1012.41
2018-04-22T00:05:39.122Z,1012.42
2018-04-22T00:06:39.112Z,1012.43
2018-04-22T00:07:39.092Z,1012.44
2018-04-22T00:08:39.418Z,1012.45
2018-04-22T00:09:39.052Z,1012.46
2018-04-22T00:10:39.037Z,1012.42
2018-04-22T00:11:39.012Z,1012.41
2018-04-22T00:12:38.999Z,1012.43
2018-04-22T00:13:39.041Z,1012.43
2018-04-22T00:14:39.013Z,1012.39
2018-04-22T00:15:39.254Z,1012.38
2018-04-22T00:16:38.922Z,1012.39
2018-04-22T00:17:38.952Z,1012.34
2018-04-22T00:18:38.889Z,1012.33
2018-04-22T00:19:38.869Z,1012.32
2018-04-22T00:20:38.954Z,1012.30
2018-04-22T00:21:38.832Z,1012.31
2018-04-22T00:22:39.116Z,1012.30
2018-04-22T00:23:38.797Z,1012.29
2018-04-22T00:24:38.783Z,1012.28
2018-04-22T00:25:38.763Z,1012.26
2018-04-22T00:26:38.793Z,1012.21
2018-04-22T00:27:38.723Z,1012.16
2018-04-22T00:28:38.710Z,1012.15
2018-04-22T00:29:38.986Z,1012.13
2018-04-22T00:30:38.667Z,1012.16
2018-04-22T00:31:38.653Z,1012.11
2018-04-22T00:32:38.694Z,1012.12
2018-04-22T00:33:38.620Z,1012.12
2018-04-22T00:34:38.593Z,1012.08
2018-04-22T00:35:38.875Z,1012.09
2018-04-22T00:36:39.035Z,1012.10
2018-04-22T00:37:38.591Z,1012.09
2018-04-22T00:38:39.020Z,1012.10
2018-04-22T00:39:38.505Z,1012.08
2018-04-22T00:40:38.491Z,1012.06
2018-04-22T00:41:38.952Z,1012.06
2018-04-22T00:42:38.444Z,1012.02
2018-04-22T00:43:40.056Z,1012.03
2018-04-22T00:44:38.460Z,1012.01
2018-04-22T00:45:38.388Z,1011.98
2018-04-22T00:46:38.380Z,1012.04
2018-04-22T00:47:38.652Z,1011.99
2018-04-22T00:48:38.337Z,1011.94
2018-04-22T00:49:38.464Z,1011.96
2018-04-22T00:50:38.312Z,1011.93
2018-04-22T00:51:38.281Z,1011.87
2018-04-22T00:52:38.258Z,1011.89
2018-04-22T00:53:38.541Z,1011.87
2018-04-22T00:54:38.321Z,1011.88
2018-04-22T00:55:38.255Z,1011.86
2018-04-22T00:56:38.183Z,1011.88
2018-04-22T00:57:38.160Z,1011.85
2018-04-22T00:58:38.334Z,1011.86
2018-04-22T00:59:38.475Z,1011.89
2018-04-22T01:00:38.296Z,1011.89
2018-04-22T01:01:38.145Z,1011.90
2018-04-22T01:02:38.071Z,1011.89
2018-04-22T01:03:38.050Z,1011.85
2018-04-22T01:04:38.034Z,1011.84
2018-04-22T01:05:38.313Z,1011.83
2018-04-22T01:06:37.996Z,1011.83
2018-04-22T01:07:38.055Z,1011.82
2018-04-22T01:08:37.960Z,1011.78
2018-04-22T01:09:37.941Z,1011.77
2018-04-22T01:10:37.922Z,1011.76
2018-04-22T01:11:38.201Z,1011.77
2018-04-22T01:12:37.881Z,1011.78
2018-04-22T01:13:37.912Z,1011.74
2018-04-22T01:14:37.852Z,1011.74
2018-04-22T01:15:37.823Z,1011.74
2018-04-22T01:16:37.805Z,1011.77
2018-04-22T01:17:37.786Z,1011.72
2018-04-22T01:18:38.278Z,1011.72
2018-04-22T01:19:37.796Z,1011.71
2018-04-22T01:20:37.729Z,1011.68
2018-04-22T01:21:37.722Z,1011.69
2018-04-22T01:22:37.693Z,1011.65
2018-04-22T01:23:37.679Z,1011.67
2018-04-22T01:24:37.657Z,1011.70
2018-04-22T01:25:38.290Z,1011.69
2018-04-22T01:26:37.615Z,1011.66
2018-04-22T01:27:37.597Z,1011.66
2018-04-22T01:28:37.587Z,1011.71
2018-04-22T01:29:37.568Z,1011.67
2018-04-22T01:30:37.569Z,1011.69
2018-04-22T01:31:37.590Z,1011.69
2018-04-22T01:32:37.804Z,1011.70
2018-04-22T01:33:37.483Z,1011.68
2018-04-22T01:34:37.463Z,1011.68
2018-04-22T01:35:37.447Z,1011.67
2018-04-22T01:36:37.533Z,1011.70
2018-04-22T01:37:37.406Z,1011.67
2018-04-22T01:38:37.390Z,1011.66
2018-04-22T01:39:37.672Z,1011.68
2018-04-22T01:40:37.350Z,1011.68
2018-04-22T01:41:37.429Z,1011.68
2018-04-22T01:42:37.365Z,1011.66
2018-04-22T01:43:37.292Z,1011.64
2018-04-22T01:44:37.272Z,1011.65
2018-04-22T01:45:37.251Z,1011.60
2018-04-22T01:46:37.534Z,1011.60
2018-04-22T01:47:37.209Z,1011.58
2018-04-22T01:48:37.246Z,1011.56
2018-04-22T01:49:37.171Z,1011.58
2018-04-22T01:51:37.133Z,1011.51
2018-04-22T01:52:37.118Z,1011.52
2018-04-22T01:53:37.812Z,1011.55
2018-04-22T01:54:37.329Z,1011.51
2018-04-22T01:55:37.059Z,1011.53
2018-04-22T01:56:37.039Z,1011.50
2018-04-22T01:57:37.019Z,1011.48
2018-04-22T01:58:37.007Z,1011.47
2018-04-22T01:59:37.079Z,1011.45
2018-04-22T02:00:37.270Z,1011.47
2018-04-22T02:01:36.946Z,1011.41
2018-04-22T02:02:36.920Z,1011.46
2018-04-22T02:03:36.898Z,1011.39
2018-04-22T02:04:36.884Z,1011.44
2018-04-22T02:05:36.913Z,1011.44
2018-04-22T02:06:37.141Z,1011.44
2018-04-22T02:07:36.823Z,1011.43
2018-04-22T02:08:36.812Z,1011.43
2018-04-22T02:09:36.790Z,1011.43
2018-04-22T02:10:36.765Z,1011.44
2018-04-22T02:11:36.893Z,1011.42
2018-04-22T02:12:37.033Z,1011.44
2018-04-22T02:13:36.713Z,1011.45
2018-04-22T02:14:36.684Z,1011.45
2018-04-22T02:15:36.665Z,1011.42
2018-04-22T02:16:36.648Z,1011.45
2018-04-22T02:17:36.673Z,1011.42
2018-04-22T02:18:36.907Z,1011.42
2018-04-22T02:19:36.585Z,1011.43
2018-04-22T02:20:36.565Z,1011.41
2018-04-22T02:21:36.546Z,1011.42
2018-04-22T02:22:36.574Z,1011.41
2018-04-22T02:23:36.505Z,1011.40
2018-04-22T02:24:36.789Z,1011.36
2018-04-22T02:25:36.470Z,1011.37
2018-04-22T02:26:36.448Z,1011.36
2018-04-22T02:27:36.427Z,1011.36
2018-04-22T02:28:36.461Z,1011.34
2018-04-22T02:29:36.437Z,1011.32
2018-04-22T02:30:36.673Z,1011.31
2018-04-22T02:31:36.350Z,1011.34
2018-04-22T02:32:36.497Z,1011.36
2018-04-22T02:33:36.482Z,1011.36
2018-04-22T02:35:36.548Z,1011.35
2018-04-22T02:36:36.515Z,1011.39
2018-04-22T02:37:36.808Z,1011.36
2018-04-22T02:38:36.469Z,1011.35
2018-04-22T02:39:36.444Z,1011.29
2018-04-22T02:40:36.405Z,1011.28
2018-04-22T02:41:36.151Z,1011.28
2018-04-22T02:42:36.293Z,1011.22
2018-04-22T02:43:36.360Z,1011.23
2018-04-22T02:44:36.505Z,1011.21
2018-04-22T02:45:36.062Z,1011.23
2018-04-22T02:46:36.044Z,1011.27
2018-04-22T02:47:36.025Z,1011.30
2018-04-22T02:48:36.054Z,1011.20
2018-04-22T02:49:35.985Z,1011.22
2018-04-22T02:50:35.969Z,1011.22
2018-04-22T02:51:36.247Z,1011.26
2018-04-22T02:52:35.926Z,1011.26
2018-04-22T02:53:35.921Z,1011.26
2018-04-22T02:54:35.933Z,1011.26
2018-04-22T02:55:35.860Z,1011.25
2018-04-22T02:56:35.846Z,1011.23
2018-04-22T02:57:35.871Z,1011.22
2018-04-22T02:58:36.109Z,1011.17
2018-04-22T02:59:35.779Z,1011.23
2018-04-22T03:00:35.759Z,1011.19
2018-04-22T03:01:35.789Z,1011.16
2018-04-22T03:02:35.777Z,1011.17
2018-04-22T03:03:35.702Z,1011.13
2018-04-22T03:04:35.679Z,1011.05
2018-04-22T03:05:35.981Z,1011.05
2018-04-22T03:06:35.638Z,1011.03
2018-04-22T03:07:35.662Z,1010.98
2018-04-22T03:08:35.647Z,1010.97
2018-04-22T03:09:35.633Z,1010.97
2018-04-22T03:10:35.560Z,1010.95
2018-04-22T03:11:35.537Z,1010.98
2018-04-22T03:12:35.817Z,1010.94
2018-04-22T03:13:35.497Z,1010.92
2018-04-22T03:14:35.475Z,1010.89
2018-04-22T03:15:35.510Z,1010.83
2018-04-22T03:16:35.433Z,1010.84
2018-04-22T03:17:35.420Z,1010.84
2018-04-22T03:18:35.393Z,1010.83
2018-04-22T03:19:35.673Z,1010.84
2018-04-22T03:20:35.355Z,1010.81
2018-04-22T03:21:35.382Z,1010.82
2018-04-22T03:22:35.317Z,1010.80
2018-04-22T03:23:35.294Z,1010.78
2018-04-22T03:24:35.319Z,1010.78
2018-04-22T03:25:35.253Z,1010.79
2018-04-22T03:26:35.532Z,1010.76
2018-04-22T03:27:35.205Z,1010.75
2018-04-22T03:28:35.189Z,1010.73
2018-04-22T03:29:35.168Z,1010.72
2018-04-22T03:30:35.194Z,1010.74
2018-04-22T03:31:35.274Z,1010.73
2018-04-22T03:32:35.570Z,1010.73
2018-04-22T03:33:35.233Z,1010.72
2018-04-22T03:34:35.213Z,1010.66
2018-04-22T03:35:35.204Z,1010.64
2018-04-22T03:36:35.077Z,1010.63
2018-04-22T03:37:35.003Z,1010.56
2018-04-22T03:38:35.469Z,1010.56
2018-04-22T03:39:34.966Z,1010.52
2018-04-22T03:40:34.946Z,1010.53
2018-04-22T03:41:35.029Z,1010.53
2018-04-22T03:42:34.986Z,1010.53
2018-04-22T03:43:34.937Z,1010.55
2018-04-22T03:44:35.161Z,1010.55
2018-04-22T03:45:34.840Z,1010.57
2018-04-22T03:46:34.877Z,1010.54
2018-04-22T03:47:34.810Z,1010.54
2018-04-22T03:48:34.786Z,1010.56
2018-04-22T03:49:34.766Z,1010.53
2018-04-22T03:50:35.746Z,1010.54
2018-04-22T03:51:34.724Z,1010.53
2018-04-22T03:52:34.755Z,1010.53
2018-04-22T03:53:34.731Z,1010.48
2018-04-22T03:54:34.661Z,1010.45
2018-04-22T03:55:34.642Z,1010.43
2018-04-22T03:56:34.937Z,1010.43
2018-04-22T03:57:34.599Z,1010.44
2018-04-22T03:58:34.583Z,1010.41
2018-04-22T03:59:34.621Z,1010.39
2018-04-22T04:00:34.540Z,1010.44
2018-04-22T04:01:34.519Z,1010.46
2018-04-22T04:02:35.198Z,1010.48
2018-04-22T04:03:34.478Z,1010.50
2018-04-22T04:04:34.458Z,1010.52
2018-04-22T04:05:34.487Z,1010.54
2018-04-22T04:06:34.436Z,1010.53
2018-04-22T04:07:34.396Z,1010.58
2018-04-22T04:08:34.385Z,1010.55
2018-04-22T04:09:34.657Z,1010.56
2018-04-22T04:10:34.434Z,1010.58
2018-04-22T04:11:34.320Z,1010.53
2018-04-22T04:12:34.296Z,1010.51
2018-04-22T04:13:34.283Z,1010.50
2018-04-22T04:14:34.260Z,1010.51
2018-04-22T04:15:34.236Z,1010.48
2018-04-22T04:16:34.622Z,1010.43
2018-04-22T04:17:34.195Z,1010.47
2018-04-22T04:18:34.178Z,1010.44
2018-04-22T04:19:34.149Z,1010.44
2018-04-22T04:20:34.138Z,1010.45
2018-04-22T04:21:34.110Z,1010.45
2018-04-22T04:22:34.137Z,1010.42
2018-04-22T04:23:34.368Z,1010.41
2018-04-22T04:24:34.054Z,1010.38
2018-04-22T04:25:34.025Z,1010.36
2018-04-22T04:26:34.005Z,1010.39
2018-04-22T04:27:33.985Z,1010.39
2018-04-22T04:28:34.020Z,1010.37
2018-04-22T04:29:33.943Z,1010.34
2018-04-22T04:30:34.222Z,1010.34
2018-04-22T04:31:33.904Z,1010.33
2018-04-22T04:32:33.931Z,1010.33
2018-04-22T04:33:33.860Z,1010.29
2018-04-22T04:34:33.858Z,1010.36
2018-04-22T04:35:33.818Z,1010.37
2018-04-22T04:36:33.798Z,1010.36
2018-04-22T04:37:34.088Z,1010.35
2018-04-22T04:38:33.907Z,1010.35
2018-04-22T04:39:33.741Z,1010.36
2018-04-22T04:40:33.769Z,1010.35
2018-04-22T04:41:33.695Z,1010.39
2018-04-22T04:42:33.688Z,1010.42
2018-04-22T04:43:33.658Z,1010.44
2018-04-22T04:44:33.938Z,1010.42
2018-04-22T04:45:33.616Z,1010.42
2018-04-22T04:46:33.644Z,1010.46
2018-04-22T04:47:33.577Z,1010.43
2018-04-22T04:48:33.554Z,1010.42
2018-04-22T04:49:33.531Z,1010.38
2018-04-22T04:50:33.569Z,1010.42
2018-04-22T04:51:33.797Z,1010.39
2018-04-22T04:52:33.526Z,1010.38
2018-04-22T04:53:33.453Z,1010.41
2018-04-22T04:54:33.435Z,1010.42
2018-04-22T04:55:33.417Z,1010.41
2018-04-22T04:56:33.392Z,1010.37
2018-04-22T04:57:33.680Z,1010.41
2018-04-22T04:58:33.452Z,1010.41
2018-04-22T04:59:33.332Z,1010.42
2018-04-22T05:00:33.614Z,1010.46
2018-04-22T05:01:33.292Z,1010.55
2018-04-22T05:02:33.274Z,1010.51
2018-04-22T05:03:33.557Z,1010.52
2018-04-22T05:04:33.286Z,1010.53
2018-04-22T05:05:33.218Z,1010.52
2018-04-22T05:06:33.185Z,1010.52
2018-04-22T05:07:33.177Z,1010.49
2018-04-22T05:08:33.157Z,1010.48
2018-04-22T05:09:33.480Z,1010.45
2018-04-22T05:11:33.095Z,1010.42
2018-04-22T05:12:33.224Z,1010.44
2018-04-22T05:13:33.202Z,1010.43
2018-04-22T05:14:33.230Z,1010.45
2018-04-22T05:15:33.364Z,1010.47
2018-04-22T05:16:32.990Z,1010.48
2018-04-22T05:17:32.987Z,1010.46
2018-04-22T05:18:32.956Z,1010.45
2018-04-22T05:19:32.934Z,1010.45
2018-04-22T05:20:32.929Z,1010.46
2018-04-22T05:21:33.546Z,1010.48
2018-04-22T05:22:32.867Z,1010.47
2018-04-22T05:23:32.855Z,1010.44
2018-04-22T05:24:32.887Z,1010.44
2018-04-22T05:26:32.798Z,1010.44
2018-04-22T05:27:32.830Z,1010.47
2018-04-22T05:28:33.061Z,1010.46
2018-04-22T05:29:32.739Z,1010.48
2018-04-22T05:30:32.719Z,1010.41
2018-04-22T05:31:32.703Z,1010.42
2018-04-22T05:32:32.730Z,1010.46
2018-04-22T05:33:32.668Z,1010.46
2018-04-22T05:34:32.642Z,1010.50
2018-04-22T05:35:32.921Z,1010.48
2018-04-22T05:36:32.693Z,1010.51
2018-04-22T05:37:32.583Z,1010.49
2018-04-22T05:38:32.618Z,1010.46
2018-04-22T05:39:32.582Z,1010.45
2018-04-22T05:40:32.530Z,1010.44
2018-04-22T05:41:32.517Z,1010.46
2018-04-22T05:42:32.791Z,1010.48
2018-04-22T05:43:32.468Z,1010.49
2018-04-22T05:44:32.503Z,1010.47
2018-04-22T05:45:32.432Z,1010.46
2018-04-22T05:46:32.413Z,1010.40
2018-04-22T05:47:32.395Z,1010.43
2018-04-22T05:48:32.373Z,1010.42
2018-04-22T05:49:32.650Z,1010.40
2018-04-22T05:50:32.379Z,1010.43
2018-04-22T05:51:32.310Z,1010.46
2018-04-22T05:52:32.292Z,1010.47
2018-04-22T05:53:32.274Z,1010.45
2018-04-22T05:54:32.261Z,1010.46
2018-04-22T05:55:32.348Z,1010.40
2018-04-22T05:57:32.553Z,1010.38
2018-04-22T05:58:32.187Z,1010.38
2018-04-22T06:00:32.902Z,1010.39
2018-04-22T06:01:32.130Z,1010.42
2018-04-22T06:02:32.115Z,1010.45
2018-04-22T06:03:32.095Z,1010.44
2018-04-22T06:04:32.384Z,1010.39
2018-04-22T06:05:32.058Z,1010.41
2018-04-22T06:06:32.110Z,1010.36
2018-04-22T06:07:32.021Z,1010.34
2018-04-22T06:08:32.021Z,1010.35
2018-04-22T06:09:31.983Z,1010.36
2018-04-22T06:10:31.968Z,1010.35
2018-04-22T06:11:32.302Z,1010.33
2018-04-22T06:12:31.937Z,1010.34
2018-04-22T06:13:31.925Z,1010.30
2018-04-22T06:14:31.899Z,1010.25
2018-04-22T06:15:31.878Z,1010.25
2018-04-22T06:16:31.980Z,1010.22
2018-04-22T06:17:31.842Z,1010.21
2018-04-22T06:18:32.128Z,1010.23
2018-04-22T06:20:31.790Z,1010.19
2018-04-22T06:21:31.770Z,1010.22
2018-04-22T06:22:31.811Z,1010.22
2018-04-22T06:23:31.739Z,1010.23
2018-04-22T06:25:32.002Z,1010.23
2018-04-22T06:26:31.683Z,1010.24
2018-04-22T06:27:31.673Z,1010.23
2018-04-22T06:29:31.717Z,1010.19
2018-04-22T06:30:31.625Z,1010.14
2018-04-22T06:31:31.899Z,1010.15
2018-04-22T06:32:31.583Z,1010.13
2018-04-22T06:33:31.653Z,1010.12
2018-04-22T06:34:31.551Z,1010.08
2018-04-22T06:36:31.515Z,1010.05
2018-04-22T06:37:31.498Z,1010.00
2018-04-22T06:38:31.781Z,1010.05
2018-04-22T06:39:31.519Z,1010.03
2018-04-22T06:40:31.446Z,1010.05
2018-04-22T06:41:31.481Z,1010.03
2018-04-22T06:43:31.398Z,1009.97
2018-04-22T06:44:31.413Z,1009.97
2018-04-22T06:45:31.362Z,1010.00
2018-04-22T06:46:31.498Z,1010.03
2018-04-22T06:47:31.398Z,1010.00
2018-04-22T06:48:31.313Z,1010.03
2018-04-22T06:49:31.295Z,1010.01
2018-04-22T06:50:31.281Z,1009.99
2018-04-22T06:51:31.564Z,1010.00
2018-04-22T06:52:31.297Z,1009.98
2018-04-22T06:53:31.284Z,1009.96
2018-04-22T06:54:31.294Z,1009.96
2018-04-22T06:55:31.308Z,1009.93
2018-04-22T06:56:31.188Z,1009.95
2018-04-22T06:57:31.483Z,1009.90
2018-04-22T06:59:31.890Z,1009.91
2018-04-22T07:00:31.194Z,1009.88
2018-04-22T07:01:31.105Z,1009.93
2018-04-22T07:03:31.423Z,1009.87
2018-04-22T07:04:31.111Z,1009.82
2018-04-22T07:05:31.060Z,1009.85
2018-04-22T07:06:31.030Z,1009.84
2018-04-22T07:07:31.013Z,1009.85
2018-04-22T07:08:31.010Z,1009.85
2018-04-22T07:09:31.034Z,1009.84
2018-04-22T07:10:31.384Z,1009.86
2018-04-22T07:11:31.057Z,1009.87
2018-04-22T07:12:30.995Z,1009.89
2018-04-22T07:13:30.933Z,1009.91
2018-04-22T07:14:30.911Z,1009.93
2018-04-22T07:15:30.934Z,1009.95
2018-04-22T07:16:30.879Z,1009.98
2018-04-22T07:17:31.167Z,1009.97
2018-04-22T07:18:30.849Z,1009.99
2018-04-22T07:19:30.838Z,1009.96
2018-04-22T07:20:30.875Z,1010.12
2018-04-22T07:21:30.803Z,1010.96
2018-04-22T07:22:30.798Z,1011.41
2018-04-22T07:23:30.877Z,1011.49
2018-04-22T07:24:31.065Z,1011.51
2018-04-22T07:25:30.746Z,1011.61
2018-04-22T07:26:30.787Z,1011.85
2018-04-22T07:27:30.722Z,1011.86
2018-04-22T07:28:30.704Z,1011.95
2018-04-22T07:29:30.689Z,1012.08
2018-04-22T07:30:30.676Z,1012.25
2018-04-22T07:31:30.963Z,1012.27
2018-04-22T07:32:30.699Z,1012.36
2018-04-22T07:33:30.637Z,1012.54
2018-04-22T07:34:30.626Z,1012.68
2018-04-22T07:35:30.610Z,1012.74
2018-04-22T07:36:30.598Z,1012.80
2018-04-22T07:37:30.588Z,1012.95
2018-04-22T07:38:31.025Z,1012.96
2018-04-22T07:39:30.567Z,1013.09
2018-04-22T07:40:30.731Z,1013.40
2018-04-22T07:42:30.667Z,1014.61
2018-04-22T07:43:30.514Z,1015.32
2018-04-22T07:44:30.609Z,1016.26
2018-04-22T07:45:31.051Z,1016.53
2018-04-22T07:46:30.482Z,1017.23
2018-04-22T07:47:30.482Z,1018.22
2018-04-22T07:48:30.461Z,1017.50
2018-04-22T07:49:31.438Z,1019.62
2018-04-22T07:50:30.952Z,1020.09
2018-04-22T07:51:30.719Z,1020.49
2018-04-22T07:52:30.412Z,1021.10
2018-04-22T07:53:30.902Z,1021.46
2018-04-22T07:54:30.453Z,1020.67
2018-04-22T07:55:30.407Z,1018.12
2018-04-22T07:57:30.667Z,1014.64
2018-04-22T07:58:30.356Z,1013.89
2018-04-22T07:59:30.763Z,1013.67
2018-04-22T08:00:30.345Z,1013.86
2018-04-22T08:01:30.329Z,1012.92
2018-04-22T08:02:30.626Z,1013.17
2018-04-22T08:03:30.663Z,1012.82
2018-04-22T08:04:30.414Z,1012.62
2018-04-22T08:05:30.339Z,1012.54
2018-04-22T08:06:30.282Z,1012.53
2018-04-22T08:08:30.266Z,1012.35
2018-04-22T08:10:30.593Z,1012.33
2018-04-22T10:14:44.037Z,1009.37
2018-04-22T10:15:44.062Z,1009.31
2018-04-22T10:16:43.917Z,1009.32
2018-04-22T10:17:43.893Z,1009.24
2018-04-22T10:18:44.256Z,1009.31
2018-04-22T10:19:43.878Z,1009.20
2018-04-22T10:20:43.962Z,1009.23
2018-04-22T10:21:43.860Z,1009.18
2018-04-22T10:22:43.854Z,1009.24
2018-04-22T10:23:43.854Z,1009.19
2018-04-22T10:24:44.157Z,1009.09
2018-04-22T10:25:43.886Z,1009.12
2018-04-22T10:26:43.935Z,1009.09
2018-04-22T10:27:43.868Z,1009.10
2018-04-22T10:28:44.003Z,1009.20
2018-04-22T10:29:43.855Z,1009.17
2018-04-22T10:30:44.156Z,1009.13
2018-04-22T10:31:43.917Z,1009.11
2018-04-22T10:32:43.911Z,1009.09
2018-04-22T10:33:43.880Z,1009.01
2018-04-22T10:34:43.875Z,1009.00
2018-04-22T10:35:43.868Z,1009.00
2018-04-22T10:36:43.872Z,1009.01
2018-04-22T10:37:44.163Z,1009.02
2018-04-22T10:38:43.926Z,1009.01
2018-04-22T10:39:43.901Z,1009.00
2018-04-22T10:40:43.941Z,1009.00
2018-04-22T10:41:43.887Z,1008.98
2018-04-22T10:42:43.869Z,1009.00
2018-04-22T10:43:44.186Z,1009.01
2018-04-22T10:44:43.919Z,1009.04
2018-04-22T10:45:43.869Z,1009.02
2018-04-22T10:46:43.973Z,1008.93
2018-04-22T10:47:43.966Z,1008.92
2018-04-22T10:48:43.943Z,1008.97
2018-04-22T10:49:44.177Z,1008.80
2018-04-22T10:50:43.925Z,1008.57
2018-04-22T10:51:44.451Z,1008.66
2018-04-22T10:52:43.994Z,1008.86
2018-04-22T10:53:43.877Z,1008.82
2018-04-22T10:54:43.879Z,1009.01
2018-04-22T10:55:44.213Z,1008.90
2018-04-22T10:56:45.255Z,1008.89
2018-04-22T10:57:43.892Z,1008.82
2018-04-22T10:58:43.883Z,1008.60
2018-04-22T10:59:43.936Z,1008.70
2018-04-22T11:00:43.908Z,1008.89
2018-04-22T11:01:44.199Z,1008.92
2018-04-22T11:03:44.090Z,1008.85
2018-04-22T11:04:43.939Z,1008.80
2018-04-22T11:05:44.002Z,1008.47
2018-04-22T11:06:43.954Z,1008.73
2018-04-22T11:07:44.198Z,1008.74
2018-04-22T11:08:43.924Z,1008.78
2018-04-22T11:09:44.001Z,1008.72
2018-04-22T11:10:43.906Z,1008.68
2018-04-22T11:11:43.941Z,1008.69
2018-04-22T11:12:43.910Z,1008.78
2018-04-22T11:13:44.293Z,1008.79
2018-04-22T11:14:43.902Z,1008.78
2018-04-22T11:15:43.968Z,1008.74
2018-04-22T11:16:43.906Z,1008.70
2018-04-22T11:17:43.980Z,1008.72
2018-04-22T11:18:43.961Z,1008.39
2018-04-22T11:19:44.260Z,1008.47
2018-04-22T11:20:43.918Z,1008.70
2018-04-22T11:21:43.974Z,1008.75
2018-04-22T11:22:43.924Z,1008.69
2018-04-22T11:23:43.921Z,1008.69
2018-04-22T11:24:43.923Z,1008.65
2018-04-22T11:25:44.226Z,1008.26
2018-04-22T11:26:44.003Z,1008.50
2018-04-22T11:27:44.021Z,1008.29
2018-04-22T11:28:43.932Z,1008.45
2018-04-22T11:29:43.937Z,1008.26
2018-04-22T11:30:43.938Z,1008.28
2018-04-22T11:31:43.945Z,1008.00
2018-04-22T11:32:44.299Z,1007.98
2018-04-22T11:33:43.996Z,1007.91
2018-04-22T11:34:43.942Z,1007.82
2018-04-22T11:35:43.954Z,1007.76
2018-04-22T11:36:44.012Z,1007.83
2018-04-22T11:38:44.285Z,1007.81
2018-04-22T11:39:44.025Z,1007.80
2018-04-22T11:40:44.000Z,1007.85
2018-04-22T11:41:43.986Z,1007.98
2018-04-22T11:42:43.948Z,1007.95
2018-04-22T11:43:43.953Z,1007.78
2018-04-22T11:44:44.300Z,1007.94
2018-04-22T11:45:44.148Z,1007.98
2018-04-22T11:46:43.979Z,1008.09
2018-04-22T11:47:43.948Z,1008.30
2018-04-22T11:48:43.949Z,1008.36
2018-04-22T11:49:43.955Z,1008.07
2018-04-22T11:50:44.252Z,1008.17
2018-04-22T11:51:44.096Z,1008.09
2018-04-22T11:52:44.000Z,1008.05
2018-04-22T11:53:43.961Z,1007.98
2018-04-22T11:54:44.001Z,1008.05
2018-04-22T11:55:43.971Z,1007.99
2018-04-22T11:56:44.284Z,1007.95
2018-04-22T11:57:44.239Z,1007.92
2018-04-22T11:58:44.163Z,1007.83
2018-04-22T11:59:43.952Z,1007.84
2018-04-22T12:00:43.946Z,1007.64
2018-04-22T12:01:44.006Z,1007.81
2018-04-22T12:02:44.296Z,1007.81
2018-04-22T12:03:44.110Z,1007.81
2018-04-22T12:04:44.197Z,1007.82
2018-04-22T12:05:43.973Z,1007.82
2018-04-22T12:06:43.962Z,1007.81
2018-04-22T12:07:43.989Z,1007.82
2018-04-22T12:08:44.021Z,1007.79
2018-04-22T12:09:44.348Z,1007.75
2018-04-22T12:10:43.993Z,1007.74
2018-04-22T12:11:43.969Z,1007.75
2018-04-22T12:12:43.966Z,1007.74
2018-04-22T12:13:43.992Z,1007.68
2018-04-22T12:14:44.090Z,1007.69
2018-04-22T12:15:44.367Z,1007.67
2018-04-22T12:16:43.970Z,1007.67
2018-04-22T12:17:43.971Z,1007.69
2018-04-22T12:18:43.979Z,1007.67
2018-04-22T12:19:44.182Z,1007.70
2018-04-22T12:20:44.015Z,1007.62
2018-04-22T12:21:44.437Z,1007.60
2018-04-22T12:22:44.043Z,1007.57
2018-04-22T12:24:43.996Z,1007.56
2018-04-22T12:25:44.044Z,1007.55
2018-04-22T12:26:44.048Z,1007.48
2018-04-22T12:27:44.361Z,1007.48
2018-04-22T12:28:43.998Z,1007.49
2018-04-22T12:29:44.010Z,1007.41
2018-04-22T12:30:44.018Z,1007.38
2018-04-22T12:31:44.131Z,1007.37
2018-04-22T12:32:44.015Z,1007.33
2018-04-22T12:33:44.364Z,1007.26
2018-04-22T12:34:44.063Z,1007.24
2018-04-22T12:35:44.064Z,1007.31
2018-04-22T12:36:44.013Z,1007.31
2018-04-22T12:37:44.018Z,1007.27
2018-04-22T12:38:44.016Z,1007.27
2018-04-22T12:39:44.424Z,1007.25
2018-04-22T12:40:44.028Z,1007.22
2018-04-22T12:41:44.023Z,1007.18
2018-04-22T12:42:44.073Z,1007.16
2018-04-22T12:43:44.259Z,1007.18
2018-04-22T12:44:44.147Z,1007.16
2018-04-22T12:45:44.503Z,1007.15
2018-04-22T12:46:44.039Z,1007.15
2018-04-22T12:47:44.091Z,1007.17
2018-04-22T12:48:44.054Z,1007.12
2018-04-22T12:49:44.049Z,1007.06
2018-04-22T12:50:44.088Z,1007.07
2018-04-22T12:51:44.406Z,1007.00
2018-04-22T12:52:44.050Z,1007.07
2018-04-22T12:53:44.062Z,1007.00
2018-04-22T12:54:44.075Z,1006.98
2018-04-22T12:55:44.075Z,1006.97
2018-04-22T12:56:44.062Z,1006.94
2018-04-22T12:57:44.417Z,1006.92
2018-04-22T12:58:44.086Z,1006.95
2018-04-22T12:59:44.119Z,1006.92
2018-04-22T13:00:44.133Z,1006.87
2018-04-22T13:01:44.176Z,1006.92
2018-04-22T13:02:44.195Z,1006.93
2018-04-22T13:04:44.387Z,1006.90
2018-04-22T13:05:44.086Z,1006.90
2018-04-22T13:06:44.085Z,1006.87
2018-04-22T13:07:44.097Z,1006.86
2018-04-22T13:08:44.141Z,1006.85
2018-04-22T13:09:44.144Z,1006.82
2018-04-22T13:10:44.404Z,1006.84
2018-04-22T13:13:44.110Z,1006.77
2018-04-22T13:14:44.116Z,1006.76
2018-04-22T13:15:44.182Z,1006.68
2018-04-22T13:16:44.106Z,1006.69
2018-04-22T13:17:44.417Z,1006.67
2018-04-22T13:18:44.122Z,1006.63
2018-04-22T13:19:44.228Z,1006.62
2018-04-22T13:20:44.228Z,1006.62
2018-04-22T13:21:44.227Z,1006.66
2018-04-22T13:22:44.192Z,1006.66
2018-04-22T13:23:44.636Z,1006.68
2018-04-22T13:24:44.258Z,1006.59
2018-04-22T13:25:44.388Z,1006.57
2018-04-22T13:26:44.222Z,1006.51
2018-04-22T13:27:44.185Z,1006.47
2018-04-22T13:28:44.145Z,1006.52
2018-04-22T13:29:44.171Z,1006.41
2018-04-22T13:30:44.445Z,1006.36
2018-04-22T13:31:44.292Z,1006.36
2018-04-22T13:32:44.148Z,1006.33
2018-04-22T13:33:44.414Z,1006.29
2018-04-22T13:34:44.217Z,1006.41
2018-04-22T13:35:44.204Z,1006.36
2018-04-22T13:36:44.155Z,1006.35
2018-04-22T13:37:44.459Z,1006.27
2018-04-22T13:38:44.153Z,1006.32
2018-04-22T13:39:44.274Z,1006.33
2018-04-22T13:40:44.162Z,1006.29
2018-04-22T13:41:44.162Z,1006.35
2018-04-22T13:42:44.160Z,1006.33
2018-04-22T13:43:44.466Z,1006.26
2018-04-22T13:44:44.172Z,1006.29
2018-04-22T13:45:44.223Z,1006.25
2018-04-22T13:46:44.221Z,1006.25
2018-04-22T13:47:44.173Z,1006.17
2018-04-22T13:48:44.195Z,1006.19
2018-04-22T13:49:44.204Z,1006.15
2018-04-22T13:50:44.503Z,1006.13
2018-04-22T13:51:44.229Z,1006.18
2018-04-22T13:52:44.315Z,1006.17
2018-04-22T13:53:44.188Z,1006.11
2018-04-22T13:54:44.204Z,1006.11
2018-04-22T13:55:44.195Z,1006.13
2018-04-22T13:56:44.522Z,1006.12
2018-04-22T13:57:44.240Z,1006.12
2018-04-22T13:58:44.191Z,1006.08
2018-04-22T13:59:44.202Z,1006.06
2018-04-22T14:00:44.187Z,1006.07
2018-04-22T14:01:44.188Z,1006.06
2018-04-22T14:02:44.545Z,1005.97
2018-04-22T14:03:44.252Z,1005.94
2018-04-22T14:04:44.195Z,1006.01
2018-04-22T14:05:44.207Z,1006.03
2018-04-22T14:06:44.260Z,1005.95
2018-04-22T14:07:44.219Z,1005.94
2018-04-22T14:09:44.270Z,1005.90
2018-04-22T14:10:45.466Z,1005.91
2018-04-22T14:11:44.204Z,1005.93
2018-04-22T14:12:44.239Z,1005.92
2018-04-22T14:13:44.437Z,1005.94
2018-04-22T14:14:44.504Z,1005.84
2018-04-22T14:15:44.309Z,1005.76
2018-04-22T14:17:44.242Z,1005.73
2018-04-22T14:18:44.209Z,1005.71
2018-04-22T14:19:44.228Z,1005.69
2018-04-22T14:20:44.556Z,1005.65
2018-04-22T14:21:44.266Z,1005.63
2018-04-22T14:22:44.257Z,1005.66
2018-04-22T14:23:45.470Z,1005.64
2018-04-22T14:24:44.262Z,1005.69
2018-04-22T14:25:44.228Z,1005.62
2018-04-22T14:26:44.520Z,1005.57
2018-04-22T14:27:44.281Z,1005.57
2018-04-22T14:28:44.229Z,1005.54
2018-04-22T14:29:44.282Z,1005.52
2018-04-22T14:30:44.282Z,1005.50
2018-04-22T14:31:44.269Z,1005.47
2018-04-22T14:32:44.554Z,1005.48
2018-04-22T14:33:44.311Z,1005.41